sensor_id;sensor_type;location;lat;lon;timestamp;pressure;altitude;pressure_sealevel;temperature;humidity
77517;BME280;68414;53.946;27.634;2024-03-06T00:00:51;99810.484375;;;1.120000;64.816406
77517;BME280;68414;53.946;27.634;2024-03-06T00:01:51;99816.375000;;;1.140000;64.776367
77517;BME280;68414;53.946;27.634;2024-03-06T00:02:51;99816.156250;;;1.150000;64.582031
77517;BME280;68414;53.946;27.634;2024-03-06T00:03:51;99809.460938;;;1.130000;64.458984
77517;BME280;68414;53.946;27.634;2024-03-06T00:04:51;99822.687500;;;1.130000;64.665039
77517;BME280;68414;53.946;27.634;2024-03-06T00:05:51;99812.328125;;;1.110000;64.653320
77517;BME280;68414;53.946;27.634;2024-03-06T00:06:51;99822.468750;;;1.140000;64.701172
77517;BME280;68414;53.946;27.634;2024-03-06T00:07:51;99822.687500;;;1.130000;64.838867
77517;BME280;68414;53.946;27.634;2024-03-06T00:08:51;99819.453125;;;1.110000;64.782227
77517;BME280;68414;53.946;27.634;2024-03-06T00:09:51;99814.968750;;;1.110000;64.750977
77517;BME280;68414;53.946;27.634;2024-03-06T00:10:51;99817.453125;;;1.060000;64.907227
77517;BME280;68414;53.946;27.634;2024-03-06T00:11:51;99823.125000;;;1.100000;64.856445
77517;BME280;68414;53.946;27.634;2024-03-06T00:12:51;99824.750000;;;1.110000;64.913086
77517;BME280;68414;53.946;27.634;2024-03-06T00:13:51;99817.828125;;;1.100000;64.900391
77517;BME280;68414;53.946;27.634;2024-03-06T00:14:51;99823.125000;;;1.100000;64.845703
77517;BME280;68414;53.946;27.634;2024-03-06T00:15:51;99819.296875;;;1.060000;65.057617
77517;BME280;68414;53.946;27.634;2024-03-06T00:16:51;99819.296875;;;1.060000;64.993164
77517;BME280;68414;53.946;27.634;2024-03-06T00:17:51;99819.171875;;;1.000000;65.245117
77517;BME280;68414;53.946;27.634;2024-03-06T00:18:52;99824.085938;;;0.970000;65.239258
77517;BME280;68414;53.946;27.634;2024-03-06T00:19:51;99821.218750;;;0.980000;65.426758
77517;BME280;68414;53.946;27.634;2024-03-06T00:20:51;99822.843750;;;0.990000;65.581055
77517;BME280;68414;53.946;27.634;2024-03-06T00:21:51;99827.109375;;;1.000000;65.397461
77517;BME280;68414;53.946;27.634;2024-03-06T00:22:54;99822.406250;;;1.030000;65.334961
77517;BME280;68414;53.946;27.634;2024-03-06T00:23:51;99828.859375;;;1.070000;65.135742
77517;BME280;68414;53.946;27.634;2024-03-06T00:24:51;99830.468750;;;1.080000;65.060547
77517;BME280;68414;53.946;27.634;2024-03-06T00:25:52;99805.406250;;;0.920000;65.111328
77517;BME280;68414;53.946;27.634;2024-03-06T00:26:51;99819.976562;;;1.010000;65.409180
77517;BME280;68414;53.946;27.634;2024-03-06T00:27:51;99827.703125;;;1.030000;65.476562
77517;BME280;68414;53.946;27.634;2024-03-06T00:28:51;99823.656250;;;1.000000;65.537109
77517;BME280;68414;53.946;27.634;2024-03-06T00:29:52;99829.968750;;;0.990000;65.459961
77517;BME280;68414;53.946;27.634;2024-03-06T00:30:51;99834.671875;;;0.970000;65.554688
77517;BME280;68414;53.946;27.634;2024-03-06T00:31:52;99832.234375;;;0.950000;65.738281
77517;BME280;68414;53.946;27.634;2024-03-06T00:32:51;99839.156250;;;0.960000;65.728516
77517;BME280;68414;53.946;27.634;2024-03-06T00:33:51;99829.000000;;;0.930000;65.648438
77517;BME280;68414;53.946;27.634;2024-03-06T00:34:51;99827.812500;;;0.890000;65.813477
77517;BME280;68414;53.946;27.634;2024-03-06T00:35:51;99837.203125;;;0.850000;65.797852
77517;BME280;68414;53.946;27.634;2024-03-06T00:36:51;99833.968750;;;0.830000;66.196289
77517;BME280;68414;53.946;27.634;2024-03-06T00:37:52;99835.585938;;;0.840000;66.187500
77517;BME280;68414;53.946;27.634;2024-03-06T00:38:51;99831.914062;;;0.850000;66.199219
77517;BME280;68414;53.946;27.634;2024-03-06T00:39:51;99830.460938;;;0.890000;66.084961
77517;BME280;68414;53.946;27.634;2024-03-06T00:40:51;99834.343750;;;0.870000;66.028320
77517;BME280;68414;53.946;27.634;2024-03-06T00:41:52;99841.257812;;;0.880000;66.094727
77517;BME280;68414;53.946;27.634;2024-03-06T00:42:51;99838.390625;;;0.890000;65.976562
77517;BME280;68414;53.946;27.634;2024-03-06T00:43:51;99838.390625;;;0.890000;66.009766
77517;BME280;68414;53.946;27.634;2024-03-06T00:44:51;99836.773438;;;0.880000;65.955078
77517;BME280;68414;53.946;27.634;2024-03-06T00:45:51;99838.828125;;;0.860000;65.984375
77517;BME280;68414;53.946;27.634;2024-03-06T00:46:51;99842.062500;;;0.880000;66.096680
77517;BME280;68414;53.946;27.634;2024-03-06T00:47:51;99839.640625;;;0.870000;66.006836
77517;BME280;68414;53.946;27.634;2024-03-06T00:48:51;99840.445312;;;0.870000;66.017578
77517;BME280;68414;53.946;27.634;2024-03-06T00:49:51;99832.507812;;;0.870000;66.093750
77517;BME280;68414;53.946;27.634;2024-03-06T00:50:51;99841.687500;;;0.850000;66.177734
77517;BME280;68414;53.946;27.634;2024-03-06T00:51:51;99837.859375;;;0.810000;66.421875
77517;BME280;68414;53.946;27.634;2024-03-06T00:52:51;99842.328125;;;0.800000;66.398438
77517;BME280;68414;53.946;27.634;2024-03-06T00:53:51;99840.281250;;;0.820000;66.369141
77517;BME280;68414;53.946;27.634;2024-03-06T00:54:51;99838.664062;;;0.810000;66.475586
77517;BME280;68414;53.946;27.634;2024-03-06T00:55:51;99836.015625;;;0.810000;66.313477
77517;BME280;68414;53.946;27.634;2024-03-06T00:56:51;99839.851562;;;0.850000;66.470703
77517;BME280;68414;53.946;27.634;2024-03-06T00:57:51;99838.828125;;;0.860000;66.321289
77517;BME280;68414;53.946;27.634;2024-03-06T00:58:51;99843.312500;;;0.860000;66.167969
77517;BME280;68414;53.946;27.634;2024-03-06T00:59:51;99844.710938;;;0.880000;66.020508
77517;BME280;68414;53.946;27.634;2024-03-06T01:00:51;99850.859375;;;0.820000;65.879883
77517;BME280;68414;53.946;27.634;2024-03-06T01:01:51;99851.031250;;;0.870000;66.202148
77517;BME280;68414;53.946;27.634;2024-03-06T01:02:51;99846.976562;;;0.850000;66.080078
77517;BME280;68414;53.946;27.634;2024-03-06T01:03:51;99845.734375;;;0.870000;66.234375
77517;BME280;68414;53.946;27.634;2024-03-06T01:04:51;99850.437500;;;0.850000;66.220703
77517;BME280;68414;53.946;27.634;2024-03-06T01:05:51;99849.406250;;;0.860000;66.169922
77517;BME280;68414;53.946;27.634;2024-03-06T01:06:51;99851.031250;;;0.870000;66.104492
77517;BME280;68414;53.946;27.634;2024-03-06T01:07:51;99854.703125;;;0.860000;66.115234
77517;BME280;68414;53.946;27.634;2024-03-06T01:08:52;99861.609375;;;0.870000;66.147461
77517;BME280;68414;53.946;27.634;2024-03-06T01:09:51;99862.898438;;;0.780000;65.885742
77517;BME280;68414;53.946;27.634;2024-03-06T01:10:51;99857.609375;;;0.780000;66.417969
77517;BME280;68414;53.946;27.634;2024-03-06T01:11:51;99856.796875;;;0.780000;66.502930
77517;BME280;68414;53.946;27.634;2024-03-06T01:12:51;99860.039062;;;0.800000;66.418945
77517;BME280;68414;53.946;27.634;2024-03-06T01:13:51;99857.984375;;;0.820000;66.215820
77517;BME280;68414;53.946;27.634;2024-03-06T01:14:51;99857.984375;;;0.820000;66.248047
77517;BME280;68414;53.946;27.634;2024-03-06T01:15:51;99865.968750;;;0.750000;66.401367
77517;BME280;68414;53.946;27.634;2024-03-06T01:16:51;99860.093750;;;0.730000;66.322266
77517;BME280;68414;53.946;27.634;2024-03-06T01:17:51;99856.632812;;;0.730000;66.407227
77517;BME280;68414;53.946;27.634;2024-03-06T01:18:51;99862.140625;;;0.710000;66.709961
77517;BME280;68414;53.946;27.634;2024-03-06T01:19:51;99853.984375;;;0.730000;66.451172
77517;BME280;68414;53.946;27.634;2024-03-06T01:20:51;99858.468750;;;0.720000;66.417969
77517;BME280;68414;53.946;27.634;2024-03-06T01:21:51;99861.781250;;;0.680000;66.737305
77517;BME280;68414;53.946;27.634;2024-03-06T01:22:51;99856.843750;;;0.710000;66.699219
77517;BME280;68414;53.946;27.634;2024-03-06T01:23:51;99861.328125;;;0.710000;66.600586
77517;BME280;68414;53.946;27.634;2024-03-06T01:24:51;99859.281250;;;0.730000;66.504883
77517;BME280;68414;53.946;27.634;2024-03-06T01:25:51;99870.281250;;;0.700000;66.566406
77517;BME280;68414;53.946;27.634;2024-03-06T01:26:51;99867.890625;;;0.680000;66.738281
77517;BME280;68414;53.946;27.634;2024-03-06T01:27:51;99861.187500;;;0.650000;66.723633
77517;BME280;68414;53.946;27.634;2024-03-06T01:28:52;99866.687500;;;0.640000;66.893555
77517;BME280;68414;53.946;27.634;2024-03-06T01:29:51;99866.687500;;;0.640000;66.850586
77517;BME280;68414;53.946;27.634;2024-03-06T01:30:51;99874.625000;;;0.640000;66.905273
77517;BME280;68414;53.946;27.634;2024-03-06T01:31:51;99863.023438;;;0.650000;66.830078
77517;BME280;68414;53.946;27.634;2024-03-06T01:32:51;99862.210938;;;0.640000;66.829102
77517;BME280;68414;53.946;27.634;2024-03-06T01:33:51;99859.781250;;;0.630000;66.838867
77517;BME280;68414;53.946;27.634;2024-03-06T01:34:51;99867.921875;;;0.610000;66.651367
77517;BME280;68414;53.946;27.634;2024-03-06T01:35:51;99860.289062;;;0.470000;67.300781
77517;BME280;68414;53.946;27.634;2024-03-06T01:37:53;99867.203125;;;0.480000;67.389648
77517;BME280;68414;53.946;27.634;2024-03-06T01:38:51;99867.968750;;;0.550000;67.357422
77517;BME280;68414;53.946;27.634;2024-03-06T01:39:51;99863.062500;;;0.580000;67.134766
77517;BME280;68414;53.946;27.634;2024-03-06T01:40:51;99875.046875;;;0.610000;66.825195
77517;BME280;68414;53.946;27.634;2024-03-06T01:41:51;99867.546875;;;0.580000;67.036133
77517;BME280;68414;53.946;27.634;2024-03-06T01:42:51;99868.140625;;;0.600000;66.919922
77517;BME280;68414;53.946;27.634;2024-03-06T01:43:51;99871.593750;;;0.600000;66.812500
77517;BME280;68414;53.946;27.634;2024-03-06T01:44:51;99873.000000;;;0.630000;66.838867
77517;BME280;68414;53.946;27.634;2024-03-06T01:45:53;99871.375000;;;0.620000;66.715820
77517;BME280;68414;53.946;27.634;2024-03-06T01:46:51;99874.023438;;;0.620000;66.933594
77517;BME280;68414;53.946;27.634;2024-03-06T01:47:51;99880.765625;;;0.580000;66.959961
77517;BME280;68414;53.946;27.634;2024-03-06T01:48:51;99875.093750;;;0.540000;67.062500
77517;BME280;68414;53.946;27.634;2024-03-06T01:49:51;99884.859375;;;0.540000;67.106445
77517;BME280;68414;53.946;27.634;2024-03-06T01:50:52;99876.750000;;;0.490000;67.196289
77517;BME280;68414;53.946;27.634;2024-03-06T01:51:52;99873.085938;;;0.500000;67.305664
77517;BME280;68414;53.946;27.634;2024-03-06T01:52:51;99877.953125;;;0.530000;67.322266
77517;BME280;68414;53.946;27.634;2024-03-06T01:53:51;99881.406250;;;0.530000;67.191406
77517;BME280;68414;53.946;27.634;2024-03-06T01:54:51;99878.585938;;;0.480000;67.173828
77517;BME280;68414;53.946;27.634;2024-03-06T01:55:51;99884.257812;;;0.520000;67.177734
77517;BME280;68414;53.946;27.634;2024-03-06T01:56:51;99886.304688;;;0.500000;67.087891
77517;BME280;68414;53.946;27.634;2024-03-06T01:57:51;99883.875000;;;0.480000;67.206055
77517;BME280;68414;53.946;27.634;2024-03-06T01:58:51;99883.062500;;;0.480000;67.237305
77517;BME280;68414;53.946;27.634;2024-03-06T01:59:53;99887.960938;;;0.440000;67.394531
77517;BME280;68414;53.946;27.634;2024-03-06T02:00:52;99887.156250;;;0.440000;67.579102
77517;BME280;68414;53.946;27.634;2024-03-06T02:02:51;99891.593750;;;0.500000;67.391602
77517;BME280;68414;53.946;27.634;2024-03-06T02:03:51;99884.257812;;;0.520000;67.101562
77517;BME280;68414;53.946;27.634;2024-03-06T02:04:52;99887.328125;;;0.490000;67.272461
77517;BME280;68414;53.946;27.634;2024-03-06T02:05:51;99892.187500;;;0.520000;67.199219
77517;BME280;68414;53.946;27.634;2024-03-06T02:06:51;99890.570312;;;0.510000;67.221680
77517;BME280;68414;53.946;27.634;2024-03-06T02:07:51;99891.171875;;;0.530000;67.267578
77517;BME280;68414;53.946;27.634;2024-03-06T02:08:51;99890.953125;;;0.540000;67.280273
77517;BME280;68414;53.946;27.634;2024-03-06T02:09:51;99894.835938;;;0.520000;67.037109
77517;BME280;68414;53.946;27.634;2024-03-06T02:10:51;99898.078125;;;0.540000;67.388672
77517;BME280;68414;53.946;27.634;2024-03-06T02:11:51;99893.593750;;;0.540000;67.269531
77517;BME280;68414;53.946;27.634;2024-03-06T02:12:52;99894.835938;;;0.520000;67.015625
77517;BME280;68414;53.946;27.634;2024-03-06T02:13:51;99888.312500;;;0.540000;67.214844
77517;BME280;68414;53.946;27.634;2024-03-06T02:14:51;99896.031250;;;0.560000;67.184570
77517;BME280;68414;53.946;27.634;2024-03-06T02:15:51;99890.359375;;;0.520000;67.059570
77517;BME280;68414;53.946;27.634;2024-03-06T02:16:51;99894.406250;;;0.550000;67.259766
77517;BME280;68414;53.946;27.634;2024-03-06T02:17:51;99894.625000;;;0.530000;66.909180
77517;BME280;68414;53.946;27.634;2024-03-06T02:18:53;99897.656250;;;0.570000;67.197266
77517;BME280;68414;53.946;27.634;2024-03-06T02:19:51;99896.031250;;;0.560000;67.163086
77517;BME280;68414;53.946;27.634;2024-03-06T02:20:51;99900.718750;;;0.540000;66.976562
77517;BME280;68414;53.946;27.634;2024-03-06T02:21:51;99908.656250;;;0.540000;66.900391
77517;BME280;68414;53.946;27.634;2024-03-06T02:22:51;99897.859375;;;0.550000;66.879883
77517;BME280;68414;53.946;27.634;2024-03-06T02:23:51;99906.218750;;;0.520000;67.114258
77517;BME280;68414;53.946;27.634;2024-03-06T02:24:51;99909.078125;;;0.510000;66.950195
77517;BME280;68414;53.946;27.634;2024-03-06T02:25:51;99909.078125;;;0.510000;67.166992
77517;BME280;68414;53.946;27.634;2024-03-06T02:26:51;99909.500000;;;0.480000;67.009766
77517;BME280;68414;53.946;27.634;2024-03-06T02:27:51;99905.835938;;;0.490000;67.066406
77517;BME280;68414;53.946;27.634;2024-03-06T02:28:52;99906.679688;;;0.430000;67.293945
77517;BME280;68414;53.946;27.634;2024-03-06T02:29:51;99907.875000;;;0.470000;67.062500
77517;BME280;68414;53.946;27.634;2024-03-06T02:30:51;99905.023438;;;0.480000;67.076172
77517;BME280;68414;53.946;27.634;2024-03-06T02:31:51;99901.570312;;;0.480000;67.258789
77517;BME280;68414;53.946;27.634;2024-03-06T02:32:51;99896.734375;;;0.380000;67.309570
77517;BME280;68414;53.946;27.634;2024-03-06T02:33:51;99908.718750;;;0.410000;67.605469
77517;BME280;68414;53.946;27.634;2024-03-06T02:34:51;99904.843750;;;0.430000;67.598633
77517;BME280;68414;53.946;27.634;2024-03-06T02:35:51;99906.679688;;;0.430000;67.445312
77517;BME280;68414;53.946;27.634;2024-03-06T02:36:51;99909.140625;;;0.380000;67.525391
77517;BME280;68414;53.946;27.634;2024-03-06T02:37:51;99905.867188;;;0.420000;67.467773
77517;BME280;68414;53.946;27.634;2024-03-06T02:38:51;99914.609375;;;0.430000;67.185547
77517;BME280;68414;53.946;27.634;2024-03-06T02:39:51;99919.687500;;;0.440000;67.188477
77517;BME280;68414;53.946;27.634;2024-03-06T02:40:51;99912.351562;;;0.460000;67.018555
77517;BME280;68414;53.946;27.634;2024-03-06T02:41:51;99907.671875;;;0.480000;67.292969
77517;BME280;68414;53.946;27.634;2024-03-06T02:42:51;99909.890625;;;0.510000;67.124023
77517;BME280;68414;53.946;27.634;2024-03-06T02:43:51;99916.203125;;;0.500000;67.068359
77517;BME280;68414;53.946;27.634;2024-03-06T02:44:51;99907.843750;;;0.530000;66.942383
77517;BME280;68414;53.946;27.634;2024-03-06T02:45:51;99908.234375;;;0.570000;66.915039
77517;BME280;68414;53.946;27.634;2024-03-06T02:46:51;99910.273438;;;0.550000;66.695312
77517;BME280;68414;53.946;27.634;2024-03-06T02:47:51;99918.000000;;;0.560000;66.632812
77517;BME280;68414;53.946;27.634;2024-03-06T02:48:51;99916.757812;;;0.590000;66.659180
77517;BME280;68414;53.946;27.634;2024-03-06T02:49:51;99916.335938;;;0.620000;66.672852
77517;BME280;68414;53.946;27.634;2024-03-06T02:50:51;99911.468750;;;0.590000;66.659180
77517;BME280;68414;53.946;27.634;2024-03-06T02:51:51;99917.570312;;;0.590000;66.496094
77517;BME280;68414;53.946;27.634;2024-03-06T02:52:51;99922.859375;;;0.590000;66.648438
77517;BME280;68414;53.946;27.634;2024-03-06T02:53:51;99906.781250;;;0.610000;66.325195
77517;BME280;68414;53.946;27.634;2024-03-06T02:54:51;99914.539062;;;0.560000;66.447266
77517;BME280;68414;53.946;27.634;2024-03-06T02:55:51;99915.953125;;;0.580000;66.559570
77517;BME280;68414;53.946;27.634;2024-03-06T02:56:51;99913.304688;;;0.580000;66.582031
77517;BME280;68414;53.946;27.634;2024-03-06T02:57:51;99917.148438;;;0.620000;66.489258
77517;BME280;68414;53.946;27.634;2024-03-06T02:58:51;99917.953125;;;0.630000;66.372070
77517;BME280;68414;53.946;27.634;2024-03-06T02:59:51;99908.617188;;;0.600000;66.377930
77517;BME280;68414;53.946;27.634;2024-03-06T03:00:51;99916.546875;;;0.600000;66.313477
77517;BME280;68414;53.946;27.634;2024-03-06T03:01:51;99922.648438;;;0.610000;66.575195
77517;BME280;68414;53.946;27.634;2024-03-06T03:02:51;99929.343750;;;0.630000;66.156250
77517;BME280;68414;53.946;27.634;2024-03-06T03:03:51;99921.406250;;;0.630000;66.296875
77517;BME280;68414;53.946;27.634;2024-03-06T03:04:51;99924.265625;;;0.620000;66.282227
77517;BME280;68414;53.946;27.634;2024-03-06T03:05:51;99922.890625;;;0.530000;66.605469
77517;BME280;68414;53.946;27.634;2024-03-06T03:06:51;99928.187500;;;0.530000;66.725586
77517;BME280;68414;53.946;27.634;2024-03-06T03:07:51;99922.890625;;;0.530000;66.573242
77517;BME280;68414;53.946;27.634;2024-03-06T03:08:51;99922.468750;;;0.560000;66.555664
77517;BME280;68414;53.946;27.634;2024-03-06T03:09:51;99924.695312;;;0.590000;66.506836
77517;BME280;68414;53.946;27.634;2024-03-06T03:10:51;99921.625000;;;0.620000;66.379883
77517;BME280;68414;53.946;27.634;2024-03-06T03:11:51;99923.250000;;;0.630000;66.404297
77517;BME280;68414;53.946;27.634;2024-03-06T03:12:51;99922.015625;;;0.650000;66.310547
77517;BME280;68414;53.946;27.634;2024-03-06T03:13:51;99928.468750;;;0.700000;66.088867
77517;BME280;68414;53.946;27.634;2024-03-06T03:14:51;99920.781250;;;0.680000;65.815430
77517;BME280;68414;53.946;27.634;2024-03-06T03:15:51;99928.710938;;;0.680000;65.989258
77517;BME280;68414;53.946;27.634;2024-03-06T03:16:51;99930.578125;;;0.610000;66.021484
77517;BME280;68414;53.946;27.634;2024-03-06T03:17:51;99928.148438;;;0.590000;65.942383
77517;BME280;68414;53.946;27.634;2024-03-06T03:18:51;99930.578125;;;0.610000;66.195312
77517;BME280;68414;53.946;27.634;2024-03-06T03:19:51;99927.343750;;;0.590000;66.149414
77517;BME280;68414;53.946;27.634;2024-03-06T03:20:51;99924.484375;;;0.600000;66.095703
77517;BME280;68414;53.946;27.634;2024-03-06T03:21:51;99932.203125;;;0.620000;66.282227
77517;BME280;68414;53.946;27.634;2024-03-06T03:22:51;99934.453125;;;0.580000;65.908203
77517;BME280;68414;53.946;27.634;2024-03-06T03:23:51;99934.250000;;;0.600000;66.235352
77517;BME280;68414;53.946;27.634;2024-03-06T03:24:51;99927.343750;;;0.590000;66.235352
77517;BME280;68414;53.946;27.634;2024-03-06T03:25:51;99930.578125;;;0.610000;66.032227
77517;BME280;68414;53.946;27.634;2024-03-06T03:26:51;99935.445312;;;0.640000;66.177734
77517;BME280;68414;53.946;27.634;2024-03-06T03:27:51;99938.093750;;;0.640000;66.134766
77517;BME280;68414;53.946;27.634;2024-03-06T03:28:51;99934.843750;;;0.620000;65.902344
77517;BME280;68414;53.946;27.634;2024-03-06T03:29:51;99937.492188;;;0.620000;66.000000
77517;BME280;68414;53.946;27.634;2024-03-06T03:30:51;99937.882812;;;0.650000;65.985352
77517;BME280;68414;53.946;27.634;2024-03-06T03:31:51;99932.796875;;;0.640000;65.916992
77517;BME280;68414;53.946;27.634;2024-03-06T03:32:51;99937.671875;;;0.670000;66.083984
77517;BME280;68414;53.946;27.634;2024-03-06T03:33:51;99935.234375;;;0.650000;66.039062
77517;BME280;68414;53.946;27.634;2024-03-06T03:34:51;99941.937500;;;0.680000;66.021484
77517;BME280;68414;53.946;27.634;2024-03-06T03:35:51;99933.187500;;;0.680000;65.835938
77517;BME280;68414;53.946;27.634;2024-03-06T03:36:51;99931.359375;;;0.680000;66.033203
77517;BME280;68414;53.946;27.634;2024-03-06T03:37:51;99927.898438;;;0.680000;66.172852
77517;BME280;68414;53.946;27.634;2024-03-06T03:38:51;99936.640625;;;0.680000;65.859375
77517;BME280;68414;53.946;27.634;2024-03-06T03:39:51;99930.328125;;;0.690000;65.620117
77517;BME280;68414;53.946;27.634;2024-03-06T03:40:51;99942.078125;;;0.730000;65.735352
77517;BME280;68414;53.946;27.634;2024-03-06T03:41:51;99932.906250;;;0.760000;65.294922
77517;BME280;68414;53.946;27.634;2024-03-06T03:42:51;99934.914062;;;0.800000;65.670898
77517;BME280;68414;53.946;27.634;2024-03-06T03:43:51;99942.039062;;;0.800000;65.375977
77517;BME280;68414;53.946;27.634;2024-03-06T03:44:51;99936.531250;;;0.810000;65.238281
77517;BME280;68414;53.946;27.634;2024-03-06T03:45:51;99945.500000;;;0.800000;65.062500
77517;BME280;68414;53.946;27.634;2024-03-06T03:46:51;99938.375000;;;0.810000;65.031250
77517;BME280;68414;53.946;27.634;2024-03-06T03:47:51;99938.203125;;;0.760000;65.185547
77517;BME280;68414;53.946;27.634;2024-03-06T03:48:52;99942.250000;;;0.780000;65.190430
77517;BME280;68414;53.946;27.634;2024-03-06T03:49:51;99937.390625;;;0.750000;65.097656
77517;BME280;68414;53.946;27.634;2024-03-06T03:50:51;99935.765625;;;0.740000;65.334961
77517;BME280;68414;53.946;27.634;2024-03-06T03:51:51;99941.054688;;;0.740000;65.128906
77517;BME280;68414;53.946;27.634;2024-03-06T03:52:51;99930.328125;;;0.690000;66.000000
77517;BME280;68414;53.946;27.634;2024-03-06T03:53:51;99943.101562;;;0.720000;65.853516
77517;BME280;68414;53.946;27.634;2024-03-06T03:54:51;99943.101562;;;0.720000;65.582031
77517;BME280;68414;53.946;27.634;2024-03-06T03:55:52;99941.054688;;;0.740000;65.606445
77517;BME280;68414;53.946;27.634;2024-03-06T03:56:51;99938.203125;;;0.760000;65.044922
77517;BME280;68414;53.946;27.634;2024-03-06T03:57:51;99946.734375;;;0.780000;65.123047
77517;BME280;68414;53.946;27.634;2024-03-06T03:58:51;99942.851562;;;0.800000;65.170898
77517;BME280;68414;53.946;27.634;2024-03-06T03:59:51;99944.468750;;;0.810000;65.205078
77517;BME280;68414;53.946;27.634;2024-03-06T04:00:51;99940.421875;;;0.790000;65.222656
77517;BME280;68414;53.946;27.634;2024-03-06T04:01:51;99942.421875;;;0.830000;64.816406
77517;BME280;68414;53.946;27.634;2024-03-06T04:02:51;99950.359375;;;0.830000;64.947266
77517;BME280;68414;53.946;27.634;2024-03-06T04:03:51;99949.765625;;;0.810000;65.020508
77517;BME280;68414;53.946;27.634;2024-03-06T04:04:51;99948.312500;;;0.850000;65.003906
77517;BME280;68414;53.946;27.634;2024-03-06T04:05:51;99949.937500;;;0.860000;64.963867
77517;BME280;68414;53.946;27.634;2024-03-06T04:06:51;99948.906250;;;0.870000;64.800781
77517;BME280;68414;53.946;27.634;2024-03-06T04:07:51;99953.429688;;;0.800000;64.997070
77517;BME280;68414;53.946;27.634;2024-03-06T04:08:51;99956.671875;;;0.820000;65.043945
77517;BME280;68414;53.946;27.634;2024-03-06T04:09:51;99960.132812;;;0.830000;65.034180
77517;BME280;68414;53.946;27.634;2024-03-06T04:10:51;99957.875000;;;0.860000;64.930664
77517;BME280;68414;53.946;27.634;2024-03-06T04:11:53;99957.484375;;;0.830000;64.610352
77517;BME280;68414;53.946;27.634;2024-03-06T04:12:51;99962.562500;;;0.840000;65.024414
77517;BME280;68414;53.946;27.634;2024-03-06T04:13:51;99954.414062;;;0.860000;64.908203
77517;BME280;68414;53.946;27.634;2024-03-06T04:14:51;99958.890625;;;0.850000;64.732422
77517;BME280;68414;53.946;27.634;2024-03-06T04:15:51;99960.515625;;;0.860000;64.724609
77517;BME280;68414;53.946;27.634;2024-03-06T04:16:51;99957.273438;;;0.840000;64.676758
77517;BME280;68414;53.946;27.634;2024-03-06T04:17:51;99959.531250;;;0.810000;65.128906
77517;BME280;68414;53.946;27.634;2024-03-06T04:18:51;99960.132812;;;0.830000;65.088867
77517;BME280;68414;53.946;27.634;2024-03-06T04:19:51;99958.890625;;;0.850000;64.993164
77517;BME280;68414;53.946;27.634;2024-03-06T04:20:51;99953.179688;;;0.880000;64.749023
77517;BME280;68414;53.946;27.634;2024-03-06T04:21:51;99960.515625;;;0.860000;64.822266
77517;BME280;68414;53.946;27.634;2024-03-06T04:22:51;99953.609375;;;0.850000;64.471680
77517;BME280;68414;53.946;27.634;2024-03-06T04:23:51;99957.234375;;;0.910000;64.818359
77517;BME280;68414;53.946;27.634;2024-03-06T04:24:51;99963.335938;;;0.910000;64.557617
77517;BME280;68414;53.946;27.634;2024-03-06T04:25:51;99967.812500;;;0.910000;64.600586
77517;BME280;68414;53.946;27.634;2024-03-06T04:26:51;99974.734375;;;0.920000;64.536133
77517;BME280;68414;53.946;27.634;2024-03-06T04:27:51;99973.921875;;;0.910000;64.525391
77517;BME280;68414;53.946;27.634;2024-03-06T04:28:51;99973.492188;;;0.940000;64.692383
77517;BME280;68414;53.946;27.634;2024-03-06T04:29:51;99971.656250;;;0.950000;64.627930
77517;BME280;68414;53.946;27.634;2024-03-06T04:30:51;99975.117188;;;0.950000;64.499023
77517;BME280;68414;53.946;27.634;2024-03-06T04:31:51;99974.093750;;;0.960000;64.478516
77517;BME280;68414;53.946;27.634;2024-03-06T04:32:51;99976.140625;;;0.940000;64.213867
77517;BME280;68414;53.946;27.634;2024-03-06T04:33:51;99980.406250;;;0.950000;64.227539
77517;BME280;68414;53.946;27.634;2024-03-06T04:34:51;99975.539062;;;0.920000;64.254883
77517;BME280;68414;53.946;27.634;2024-03-06T04:35:51;99975.921875;;;0.960000;64.422852